createdAt,value
2018-05-14T00:01:18.339Z,101090.58
2018-05-14T00:03:46.730Z,101086.59
2018-05-14T00:06:15.041Z,101079.00
2018-05-14T00:08:43.403Z,101087.16
2018-05-14T00:11:12.494Z,101082.13
2018-05-14T00:13:41.682Z,101082.80
2018-05-14T00:16:10.005Z,101081.76
2018-05-14T00:18:38.402Z,101083.59
2018-05-14T00:21:06.784Z,101080.50
2018-05-14T00:23:35.117Z,101080.81
2018-05-14T00:26:04.201Z,101077.84
2018-05-14T00:28:33.301Z,101077.80
2018-05-14T00:31:02.467Z,101073.98
2018-05-14T00:33:30.775Z,101077.59
2018-05-14T00:35:59.211Z,101070.47
2018-05-14T00:38:27.563Z,101070.05
2018-05-14T00:40:55.875Z,101071.14
2018-05-14T00:43:24.243Z,101075.70
2018-05-14T00:45:52.571Z,101082.16
2018-05-14T00:48:21.670Z,101080.89
2018-05-14T00:50:50.770Z,101083.83
2018-05-14T00:53:19.842Z,101083.33
2018-05-14T00:55:48.169Z,101079.77
2018-05-14T00:58:16.576Z,101086.42
2018-05-14T01:00:44.909Z,101081.51
2018-05-14T01:03:14.025Z,101085.41
2018-05-14T01:05:42.356Z,101088.49
2018-05-14T01:08:10.729Z,101092.40
2018-05-14T01:10:39.139Z,101091.04
2018-05-14T01:13:07.550Z,101094.94
2018-05-14T01:15:36.617Z,101090.38
2018-05-14T01:18:04.950Z,101092.64
2018-05-14T01:20:33.692Z,101089.80
2018-05-14T01:23:02.015Z,101092.36
2018-05-14T01:25:30.363Z,101093.49
2018-05-14T01:27:58.735Z,101091.30
2018-05-14T01:30:27.051Z,101100.08
2018-05-14T01:32:55.408Z,101098.94
2018-05-14T01:35:23.770Z,101097.02
2018-05-14T01:37:52.101Z,101102.42
2018-05-14T01:40:20.421Z,101095.02
2018-05-14T01:42:50.023Z,101096.79
2018-05-14T01:45:18.867Z,101089.85
2018-05-14T01:47:47.199Z,101100.12
2018-05-14T01:50:15.527Z,101097.69
2018-05-14T01:52:43.826Z,101099.38
2018-05-14T01:55:12.133Z,101099.06
2018-05-14T01:57:40.460Z,101103.52
2018-05-14T02:00:08.854Z,101100.34
2018-05-14T02:02:37.173Z,101108.91
2018-05-14T02:05:05.927Z,101107.84
2018-05-14T02:07:34.258Z,101112.07
2018-05-14T02:10:02.606Z,101106.48
2018-05-14T02:12:31.840Z,101112.82
2018-05-14T02:15:00.170Z,101114.61
2018-05-14T02:17:29.257Z,101117.58
2018-05-14T02:19:57.609Z,101119.76
2018-05-14T02:22:25.939Z,101123.70
2018-05-14T02:24:55.028Z,101121.27
2018-05-14T02:27:24.727Z,101123.17
2018-05-14T02:29:53.048Z,101132.89
2018-05-14T02:32:21.383Z,101126.30
2018-05-14T02:34:50.528Z,101125.98
2018-05-14T02:37:18.859Z,101126.92
2018-05-14T02:39:47.184Z,101131.27
2018-05-14T02:42:15.523Z,101120.89
2018-05-14T02:44:44.603Z,101120.80
2018-05-14T02:47:12.920Z,101125.03
2018-05-14T02:49:41.879Z,101124.83
2018-05-14T02:52:10.220Z,101123.55
2018-05-14T02:54:38.563Z,101126.40
2018-05-14T02:57:06.939Z,101123.95
2018-05-14T02:59:35.249Z,101122.59
2018-05-14T03:02:03.593Z,101133.02
2018-05-14T03:04:32.707Z,101131.35
2018-05-14T03:07:01.021Z,101130.59
2018-05-14T03:09:29.338Z,101130.30
2018-05-14T03:11:58.847Z,101133.05
2018-05-14T03:14:28.115Z,101130.80
2018-05-14T03:16:56.667Z,101140.83
2018-05-14T03:19:25.012Z,101140.10
2018-05-14T03:21:54.095Z,101146.70
2018-05-14T03:24:23.184Z,101137.20
2018-05-14T03:26:51.509Z,101135.02
2018-05-14T03:29:19.895Z,101135.11
2018-05-14T03:31:48.200Z,101139.84
2018-05-14T03:34:16.807Z,101136.72
2018-05-14T03:36:45.107Z,101136.08
2018-05-14T03:39:14.182Z,101139.92
2018-05-14T03:41:42.561Z,101143.50
2018-05-14T03:44:10.880Z,101141.59
2018-05-14T03:46:39.234Z,101150.33
2018-05-14T03:49:07.605Z,101151.00
2018-05-14T03:51:36.712Z,101158.38
2018-05-14T03:54:05.807Z,101149.72
2018-05-14T03:56:35.460Z,101149.59
2018-05-14T03:59:21.484Z,101152.33
2018-05-14T04:02:21.392Z,101157.38
2018-05-14T04:05:07.232Z,101160.78
2018-05-14T04:07:35.602Z,101161.72
2018-05-14T04:10:04.677Z,101161.41
2018-05-14T04:12:33.002Z,101163.77
2018-05-14T04:15:02.213Z,101163.78
2018-05-14T04:17:30.561Z,101158.26
2018-05-14T04:19:58.897Z,101160.02
2018-05-14T04:22:27.225Z,101165.77
2018-05-14T04:24:55.543Z,101164.73
2018-05-14T04:27:23.867Z,101170.91
2018-05-14T04:29:52.994Z,101160.77
2018-05-14T04:32:21.331Z,101167.27
2018-05-14T04:34:49.647Z,101168.58
2018-05-14T04:37:18.127Z,101169.97
2018-05-14T04:39:46.439Z,101180.74
2018-05-14T04:42:14.758Z,101185.50
2018-05-14T04:44:43.843Z,101184.12
2018-05-14T04:47:12.231Z,101185.28
2018-05-14T04:49:40.488Z,101189.63
2018-05-14T04:52:08.839Z,101187.92
2018-05-14T04:54:37.150Z,101191.41
2018-05-14T04:57:05.471Z,101194.68
2018-05-14T04:59:34.012Z,101195.41
2018-05-14T05:02:02.383Z,101195.80
2018-05-14T05:04:30.701Z,101195.50
2018-05-14T05:06:59.074Z,101197.05
2018-05-14T05:09:27.409Z,101198.58
2018-05-14T05:11:55.733Z,101195.35
2018-05-14T05:14:24.862Z,101196.33
2018-05-14T05:16:53.174Z,101189.44
2018-05-14T05:19:21.520Z,101184.62
2018-05-14T05:21:50.097Z,101187.41
2018-05-14T05:24:18.443Z,101189.08
2018-05-14T05:26:46.790Z,101203.66
2018-05-14T05:29:15.155Z,101197.97
2018-05-14T05:31:43.495Z,101205.95
2018-05-14T05:34:11.827Z,101203.41
2018-05-14T05:36:40.230Z,101205.09
2018-05-14T05:39:09.345Z,101199.64
2018-05-14T05:41:37.717Z,101201.67
2018-05-14T05:44:06.895Z,101199.52
2018-05-14T05:46:35.263Z,101204.52
2018-05-14T05:49:03.611Z,101203.81
2018-05-14T05:51:32.740Z,101205.45
2018-05-14T05:54:01.066Z,101210.05
2018-05-14T05:56:29.397Z,101220.30
2018-05-14T05:58:57.792Z,101218.20
2018-05-14T06:01:26.166Z,101215.91
2018-05-14T06:03:54.514Z,101216.92
2018-05-14T06:06:23.273Z,101214.38
2018-05-14T06:08:51.581Z,101216.20
2018-05-14T06:11:19.920Z,101222.97
2018-05-14T06:13:48.300Z,101224.38
2018-05-14T06:16:16.666Z,101221.50
2018-05-14T06:18:45.787Z,101220.05
2018-05-14T06:21:14.140Z,101221.74
2018-05-14T06:23:43.263Z,101219.82
2018-05-14T06:26:11.637Z,101220.40
2018-05-14T06:28:40.231Z,101218.56
2018-05-14T06:31:08.580Z,101217.67
2018-05-14T06:33:37.670Z,101216.55
2018-05-14T06:36:06.771Z,101217.39
2018-05-14T06:38:35.849Z,101216.03
2018-05-14T06:41:04.215Z,101219.52
2018-05-14T06:43:32.582Z,101218.00
2018-05-14T06:46:00.963Z,101210.16
2018-05-14T06:48:29.327Z,101222.08
2018-05-14T06:50:58.159Z,101220.63
2018-05-14T06:53:26.480Z,101229.94
2018-05-14T06:55:54.892Z,101225.22
2018-05-14T06:58:23.267Z,101225.88
2018-05-14T07:00:51.615Z,101222.56
2018-05-14T07:03:19.964Z,101225.27
2018-05-14T07:05:48.311Z,101221.56
2018-05-14T07:08:16.635Z,101223.48
2018-05-14T07:10:45.743Z,101221.17
2018-05-14T07:13:14.271Z,101226.65
2018-05-14T07:15:42.587Z,101222.13
2018-05-14T07:18:10.943Z,101226.94
2018-05-14T07:20:39.287Z,101227.34
2018-05-14T07:23:08.375Z,101225.09
2018-05-14T07:25:36.702Z,101226.58
2018-05-14T07:28:05.083Z,101227.48
2018-05-14T07:30:33.383Z,101224.57
2018-05-14T07:33:02.472Z,101229.23
2018-05-14T07:35:31.719Z,101227.84
2018-05-14T07:38:00.130Z,101221.75
2018-05-14T07:40:28.515Z,101221.88
2018-05-14T07:42:56.827Z,101226.22
2018-05-14T07:45:25.150Z,101225.33
2018-05-14T07:47:53.503Z,101228.62
2018-05-14T07:50:21.860Z,101229.56
2018-05-14T07:52:50.184Z,101231.63
2018-05-14T07:55:18.501Z,101241.70
2018-05-14T07:57:47.797Z,101237.75
2018-05-14T08:00:16.143Z,101237.89
2018-05-14T08:02:44.493Z,101240.61
2018-05-14T08:05:12.856Z,101239.38
2018-05-14T08:07:41.185Z,101232.12
2018-05-14T08:10:09.535Z,101234.42
2018-05-14T08:12:37.896Z,101231.30
2018-05-14T08:15:06.243Z,101230.91
2018-05-14T08:17:34.553Z,101221.86
2018-05-14T08:20:03.084Z,101223.08
2018-05-14T08:22:31.401Z,101226.07
2018-05-14T08:24:59.740Z,101218.28
2018-05-14T08:27:28.094Z,101223.19
2018-05-14T08:29:56.433Z,101220.59
2018-05-14T08:32:24.774Z,101222.53
2018-05-14T08:34:53.135Z,101227.22
2018-05-14T08:37:21.492Z,101220.95
2018-05-14T08:39:50.041Z,101223.42
2018-05-14T08:42:18.531Z,101231.61
2018-05-14T08:44:47.607Z,101224.16
2018-05-14T08:47:15.933Z,101224.52
2018-05-14T08:49:44.278Z,101218.58
2018-05-14T08:52:12.600Z,101226.17
2018-05-14T08:54:40.984Z,101217.17
2018-05-14T08:57:09.350Z,101230.59
2018-05-14T08:59:37.660Z,101225.67
2018-05-14T09:02:05.988Z,101222.33
2018-05-14T09:04:34.980Z,101223.02
2018-05-14T09:07:03.333Z,101220.92
2018-05-14T09:09:31.659Z,101219.38
2018-05-14T09:12:00.003Z,101227.61
2018-05-14T09:14:29.089Z,101224.13
2018-05-14T09:16:57.467Z,101218.44
2018-05-14T09:19:25.904Z,101219.56
2018-05-14T09:21:54.188Z,101219.31
2018-05-14T09:24:22.521Z,101210.48
2018-05-14T09:26:52.033Z,101215.11
2018-05-14T09:29:21.102Z,101212.86
2018-05-14T09:31:49.410Z,101214.70
2018-05-14T09:34:18.543Z,101215.27
2018-05-14T09:36:46.893Z,101216.76
2018-05-14T09:39:15.208Z,101212.81
2018-05-14T09:41:43.560Z,101217.58
2018-05-14T09:44:11.871Z,101214.48
2018-05-14T09:46:40.204Z,101216.27
2018-05-14T09:49:08.840Z,101209.02
2018-05-14T09:51:37.150Z,101217.08
2018-05-14T09:54:05.456Z,101210.89
2018-05-14T09:56:33.812Z,101205.84
2018-05-14T09:59:02.905Z,101202.06
2018-05-14T10:01:31.994Z,101209.83
2018-05-14T10:04:01.129Z,101207.20
2018-05-14T10:06:29.469Z,101206.41
2018-05-14T10:08:57.847Z,101208.64
2018-05-14T10:11:27.363Z,101208.67
2018-05-14T10:13:56.456Z,101210.45
2018-05-14T10:16:25.131Z,101208.80
2018-05-14T10:18:53.550Z,101216.41
2018-05-14T10:21:21.788Z,101213.40
2018-05-14T10:23:50.140Z,101215.91
2018-05-14T10:26:18.475Z,101208.20
2018-05-14T10:28:47.569Z,101207.40
2018-05-14T10:31:16.666Z,101206.46
2018-05-14T10:33:46.255Z,101217.13
2018-05-14T10:36:14.592Z,101205.02
2018-05-14T10:38:42.921Z,101211.61
2018-05-14T10:41:11.354Z,101209.66
2018-05-14T10:43:39.682Z,101206.66
2018-05-14T10:46:08.777Z,101207.99
2018-05-14T10:48:37.885Z,101203.84
2018-05-14T10:51:06.980Z,101205.06
2018-05-14T10:53:36.057Z,101200.41
2018-05-14T10:56:05.060Z,101205.66
2018-05-14T10:58:33.447Z,101202.69
2018-05-14T11:01:01.772Z,101202.12
2018-05-14T11:03:30.112Z,101211.40
2018-05-14T11:05:58.438Z,101214.07
2018-05-14T11:08:26.771Z,101214.80
2018-05-14T11:10:55.115Z,101214.50
2018-05-14T11:13:23.435Z,101225.94
2018-05-14T11:15:51.786Z,101226.72
2018-05-14T11:18:20.358Z,101215.66
2018-05-14T11:20:48.669Z,101216.02
2018-05-14T11:23:16.981Z,101212.26
2018-05-14T11:25:45.371Z,101213.90
2018-05-14T11:28:13.681Z,101222.33
2018-05-14T11:30:42.775Z,101222.18
2018-05-14T11:33:11.135Z,101223.65
2018-05-14T11:35:39.470Z,101210.39
2018-05-14T11:38:07.784Z,101200.53
2018-05-14T11:40:36.501Z,101200.31
2018-05-14T11:43:05.645Z,101209.84
2018-05-14T11:45:33.948Z,101202.08
2018-05-14T11:48:02.297Z,101207.16
2018-05-14T11:50:30.640Z,101213.70
2018-05-14T11:52:59.746Z,101213.66
2018-05-14T11:55:28.137Z,101208.86
2018-05-14T11:57:56.535Z,101209.72
2018-05-14T12:00:24.890Z,101201.42
2018-05-14T12:02:53.484Z,101210.00
2018-05-14T12:05:21.812Z,101199.87
2018-05-14T12:07:50.160Z,101216.47
2018-05-14T12:10:18.495Z,101216.06
2018-05-14T12:12:46.817Z,101209.94
2018-05-14T12:15:15.143Z,101212.20
2018-05-14T12:17:44.272Z,101213.02
2018-05-14T12:20:12.708Z,101219.58
2018-05-14T12:22:41.051Z,101209.23
2018-05-14T12:25:09.613Z,101215.92
2018-05-14T12:27:37.945Z,101211.44
2018-05-14T12:30:06.302Z,101203.25
2018-05-14T12:32:35.462Z,101203.18
2018-05-14T12:35:03.801Z,101215.90
2018-05-14T12:37:32.125Z,101223.20
2018-05-14T12:40:00.501Z,101217.41
2018-05-14T12:42:28.836Z,101220.20
2018-05-14T12:44:57.163Z,101208.23
2018-05-14T12:47:25.833Z,101214.62
2018-05-14T12:49:54.926Z,101213.33
2018-05-14T12:52:24.034Z,101211.12
2018-05-14T12:54:52.373Z,101198.80
2018-05-14T12:57:20.694Z,101194.50
2018-05-14T12:59:49.029Z,101194.13
2018-05-14T13:02:17.380Z,101198.05
2018-05-14T13:04:45.705Z,101190.42
2018-05-14T13:07:14.798Z,101202.18
2018-05-14T13:09:44.176Z,101208.69
2018-05-14T13:12:12.533Z,101212.36
2018-05-14T13:14:40.882Z,101218.43
2018-05-14T13:17:09.258Z,101213.05
2018-05-14T13:19:37.639Z,101209.70
2018-05-14T13:22:06.736Z,101209.65
2018-05-14T13:24:35.854Z,101202.98
2018-05-14T13:27:04.185Z,101209.10
2018-05-14T13:29:32.525Z,101210.37
2018-05-14T13:32:01.155Z,101210.12
2018-05-14T13:34:29.457Z,101210.27
2018-05-14T13:36:58.576Z,101208.48
2018-05-14T13:39:26.928Z,101196.14
2018-05-14T13:41:55.231Z,101204.37
2018-05-14T13:44:23.641Z,101203.70
2018-05-14T13:46:51.973Z,101199.21
2018-05-14T13:49:20.312Z,101208.02
2018-05-14T13:51:48.660Z,101195.19
2018-05-14T13:54:17.199Z,101191.68
2018-05-14T13:56:45.582Z,101193.30
2018-05-14T13:59:14.675Z,101189.15
2018-05-14T14:01:43.807Z,101185.76
2018-05-14T14:04:12.142Z,101198.00
2018-05-14T14:06:40.501Z,101205.96
2018-05-14T14:09:08.905Z,101192.53
2018-05-14T14:11:37.249Z,101195.31
2018-05-14T14:14:05.567Z,101196.39
2018-05-14T14:16:34.923Z,101206.62
2018-05-14T14:19:03.240Z,101202.13
2018-05-14T14:21:32.383Z,101200.01
2018-05-14T14:24:01.024Z,101207.85
2018-05-14T14:26:29.165Z,101202.55
2018-05-14T14:28:57.510Z,101206.17
2018-05-14T14:31:25.885Z,101211.12
2018-05-14T14:33:54.227Z,101200.59
2018-05-14T14:36:23.409Z,101212.31
2018-05-14T14:38:51.783Z,101202.22
2018-05-14T14:41:20.076Z,101201.55
2018-05-14T14:43:48.438Z,101200.94
2018-05-14T14:46:16.836Z,101201.42
2018-05-14T14:48:45.194Z,101206.22
2018-05-14T14:51:13.524Z,101205.86
2018-05-14T14:53:42.681Z,101213.28
2018-05-14T14:56:10.991Z,101208.94
2018-05-14T14:58:40.066Z,101211.76
2018-05-14T15:01:09.475Z,101207.27
2018-05-14T15:03:37.794Z,101207.55
2018-05-14T15:06:06.105Z,101198.90
2018-05-14T15:08:34.461Z,101213.17
2018-05-14T15:11:02.830Z,101209.11
2018-05-14T15:13:31.139Z,101213.17
2018-05-14T15:15:59.527Z,101201.97
2018-05-14T15:18:27.832Z,101209.25
2018-05-14T15:20:56.951Z,101201.69
2018-05-14T15:23:25.858Z,101199.20
2018-05-14T15:25:54.195Z,101192.05
2018-05-14T15:28:23.273Z,101203.78
2018-05-14T15:30:51.653Z,101200.72
2018-05-14T15:33:20.003Z,101206.61
2018-05-14T15:35:48.324Z,101206.16
2018-05-14T15:38:16.701Z,101200.71
2018-05-14T15:40:45.021Z,101202.81
2018-05-14T15:43:13.355Z,101200.01
2018-05-14T15:45:42.581Z,101206.29
2018-05-14T15:48:11.698Z,101208.67
2018-05-14T15:50:40.047Z,101212.83
2018-05-14T15:53:09.170Z,101201.83
2018-05-14T15:55:37.516Z,101207.09
2018-05-14T15:58:05.841Z,101198.73
2018-05-14T16:00:34.220Z,101193.28
2018-05-14T16:03:02.603Z,101198.89
2018-05-14T16:05:30.966Z,101194.97
2018-05-14T16:07:59.978Z,101188.84
2018-05-14T16:10:28.287Z,101196.80
2018-05-14T16:12:56.636Z,101205.23
2018-05-14T16:15:25.783Z,101205.50
2018-05-14T16:17:54.933Z,101202.20
2018-05-14T16:20:23.301Z,101207.65
2018-05-14T16:22:51.648Z,101211.00
2018-05-14T16:25:20.785Z,101214.25
2018-05-14T16:27:49.295Z,101201.30
2018-05-14T16:30:17.874Z,101206.45
2018-05-14T16:32:47.031Z,101210.70
2018-05-14T16:35:15.344Z,101210.71
2018-05-14T16:37:43.702Z,101207.84
2018-05-14T16:40:12.076Z,101201.46
2018-05-14T16:42:40.412Z,101197.60
2018-05-14T16:45:09.553Z,101195.67
2018-05-14T16:47:37.875Z,101201.84
2018-05-14T16:50:06.242Z,101200.61
2018-05-14T16:52:35.049Z,101200.32
2018-05-14T16:55:03.376Z,101201.05
2018-05-14T16:57:31.700Z,101198.06
2018-05-14T17:00:00.086Z,101195.17
2018-05-14T17:02:28.403Z,101195.26
2018-05-14T17:04:56.748Z,101198.23
2018-05-14T17:07:25.146Z,101195.48
2018-05-14T17:09:53.464Z,101199.73
2018-05-14T17:12:21.783Z,101195.45
2018-05-14T17:14:50.416Z,101194.58
2018-05-14T17:17:18.816Z,101194.83
2018-05-14T17:19:47.845Z,101191.87
2018-05-14T17:22:16.236Z,101201.02
2018-05-14T17:24:44.596Z,101200.74
2018-05-14T17:27:12.936Z,101202.32
2018-05-14T17:29:41.278Z,101202.78
2018-05-14T17:32:09.603Z,101205.54
2018-05-14T17:34:37.988Z,101201.34
2018-05-14T17:37:07.763Z,101199.13
2018-05-14T17:39:36.152Z,101195.25
2018-05-14T17:42:04.523Z,101194.47
2018-05-14T17:44:32.878Z,101194.55
2018-05-14T17:47:02.108Z,101198.15
2018-05-14T17:49:30.412Z,101201.66
2018-05-14T17:51:58.771Z,101210.65
2018-05-14T17:54:27.116Z,101214.17
2018-05-14T17:56:55.441Z,101205.17
2018-05-14T17:59:23.933Z,101207.23
2018-05-14T18:01:52.246Z,101210.52
2018-05-14T18:04:20.599Z,101209.47
2018-05-14T18:06:48.947Z,101218.70
2018-05-14T18:09:17.317Z,101213.81
2018-05-14T18:11:45.662Z,101213.42
2018-05-14T18:14:14.808Z,101217.83
2018-05-14T18:16:43.147Z,101225.73
2018-05-14T18:19:12.304Z,101221.40
2018-05-14T18:21:48.582Z,101222.44
2018-05-14T18:24:16.932Z,101221.85
2018-05-14T18:26:46.178Z,101228.42
2018-05-14T18:29:19.959Z,101231.59
2018-05-14T18:31:53.848Z,101234.98
2018-05-14T18:34:27.684Z,101239.67
2018-05-14T18:36:56.852Z,101239.30
2018-05-14T18:39:25.275Z,101238.70
2018-05-14T18:41:53.965Z,101241.86
2018-05-14T18:44:27.665Z,101251.41
2018-05-14T18:46:56.089Z,101254.34
2018-05-14T18:49:24.576Z,101266.60
2018-05-14T18:51:52.973Z,101267.50
2018-05-14T18:54:21.341Z,101268.79
2018-05-14T18:56:49.691Z,101277.91
2018-05-14T18:59:18.017Z,101283.38
2018-05-14T19:01:46.871Z,101284.17
2018-05-14T19:04:15.193Z,101291.46
2018-05-14T19:06:43.559Z,101295.28
2018-05-14T19:09:11.951Z,101297.42
2018-05-14T19:11:45.866Z,101297.94
2018-05-14T19:14:14.249Z,101307.23
2018-05-14T19:16:48.070Z,101313.34
2018-05-14T19:19:16.624Z,101310.88
2018-05-14T19:21:45.016Z,101307.95
2018-05-14T19:24:13.352Z,101313.30
2018-05-14T19:26:41.736Z,101318.75
2018-05-14T19:29:15.527Z,101323.06
2018-05-14T19:31:44.013Z,101324.82
2018-05-14T19:34:17.954Z,101326.10
2018-05-14T19:36:46.512Z,101329.27
2018-05-14T19:39:20.367Z,101335.98
2018-05-14T19:41:48.848Z,101334.06
2018-05-14T19:44:17.211Z,101335.77
2018-05-14T19:46:45.520Z,101340.77
2018-05-14T19:49:13.911Z,101335.81
2018-05-14T19:51:43.070Z,101334.79
2018-05-14T19:54:11.451Z,101341.78
2018-05-14T19:56:40.124Z,101353.21
2018-05-14T19:59:08.475Z,101345.92
2018-05-14T20:01:36.827Z,101349.34
2018-05-14T20:04:05.979Z,101350.95
2018-05-14T20:06:34.332Z,101356.12
2018-05-14T20:09:02.685Z,101357.60
2018-05-14T20:11:31.048Z,101360.38
2018-05-14T20:13:59.443Z,101362.24
2018-05-14T20:16:27.752Z,101363.74
2018-05-14T20:18:56.606Z,101367.66
2018-05-14T20:21:24.932Z,101367.12
2018-05-14T20:23:53.405Z,101371.80
2018-05-14T20:26:21.750Z,101374.08
2018-05-14T20:28:50.892Z,101378.70
2018-05-14T20:31:19.308Z,101384.92
2018-05-14T20:33:47.660Z,101390.95
2018-05-14T20:36:16.010Z,101390.69
2018-05-14T20:38:44.405Z,101398.14
2018-05-14T20:41:12.827Z,101399.03
2018-05-14T20:43:41.172Z,101406.22
2018-05-14T20:46:09.502Z,101411.14
2018-05-14T20:48:37.876Z,101415.30
2018-05-14T20:51:06.254Z,101416.27
2018-05-14T20:53:34.565Z,101414.49
2018-05-14T20:56:02.924Z,101421.33
2018-05-14T20:58:31.280Z,101416.09
2018-05-14T21:00:59.684Z,101418.17
2018-05-14T21:03:28.901Z,101424.74
2018-05-14T21:05:57.972Z,101428.39
2018-05-14T21:08:26.307Z,101430.66
2018-05-14T21:10:54.653Z,101429.68
2018-05-14T21:13:23.728Z,101425.45
2018-05-14T21:15:52.813Z,101427.67
2018-05-14T21:18:21.210Z,101427.90
2018-05-14T21:20:50.305Z,101432.55
2018-05-14T21:23:18.637Z,101424.55
2018-05-14T21:25:47.637Z,101431.29
2018-05-14T21:28:15.973Z,101429.80
2018-05-14T21:30:44.324Z,101441.13
2018-05-14T21:33:12.684Z,101438.20
2018-05-14T21:35:41.035Z,101441.33
2018-05-14T21:38:09.453Z,101436.44
2018-05-14T21:40:37.811Z,101437.25
2018-05-14T21:43:06.127Z,101441.91
2018-05-14T21:45:35.228Z,101444.80
2018-05-14T21:48:04.651Z,101446.66
2018-05-14T21:50:33.051Z,101440.77
2018-05-14T21:53:01.445Z,101445.51
2018-05-14T21:55:29.824Z,101450.66
2018-05-14T21:57:58.168Z,101444.42
2018-05-14T22:00:26.507Z,101447.20
2018-05-14T22:02:54.850Z,101448.20
2018-05-14T22:05:23.162Z,101447.44
2018-05-14T22:07:51.497Z,101451.28
2018-05-14T22:10:20.167Z,101455.62
2018-05-14T22:12:48.511Z,101453.75
2018-05-14T22:15:16.859Z,101460.20
2018-05-14T22:17:45.240Z,101460.37
2018-05-14T22:20:13.560Z,101459.39
2018-05-14T22:22:41.876Z,101457.96
2018-05-14T22:25:10.256Z,101460.97
2018-05-14T22:27:38.597Z,101463.80
2018-05-14T22:30:06.925Z,101464.98
2018-05-14T22:32:35.698Z,101464.08
2018-05-14T22:35:04.015Z,101468.48
2018-05-14T22:37:32.397Z,101464.72
2018-05-14T22:40:00.719Z,101462.71
2018-05-14T22:42:29.786Z,101477.21
2018-05-14T22:44:58.099Z,101468.98
2018-05-14T22:47:26.453Z,101466.01
2018-05-14T22:49:55.532Z,101476.08
2018-05-14T22:52:23.993Z,101470.75
2018-05-14T22:54:52.430Z,101468.32
2018-05-14T22:57:20.749Z,101465.78
2018-05-14T22:59:49.083Z,101467.06
2018-05-14T23:02:18.177Z,101464.73
2018-05-14T23:04:47.259Z,101462.94
2018-05-14T23:07:15.610Z,101465.37
2018-05-14T23:09:44.014Z,101466.32
2018-05-14T23:12:12.354Z,101467.37
2018-05-14T23:14:40.674Z,101466.42
2018-05-14T23:17:09.591Z,101468.20
2018-05-14T23:19:37.923Z,101465.77
2018-05-14T23:22:07.047Z,101464.30
2018-05-14T23:24:36.177Z,101470.33
2018-05-14T23:27:04.536Z,101464.28
2018-05-14T23:29:32.887Z,101470.72
2018-05-14T23:32:01.260Z,101465.21
2018-05-14T23:34:29.596Z,101465.11
2018-05-14T23:36:57.919Z,101462.67
2018-05-14T23:39:26.352Z,101460.36
2018-05-14T23:41:54.727Z,101458.92
2018-05-14T23:44:23.426Z,101454.75
2018-05-14T23:46:51.780Z,101457.20
2018-05-14T23:49:21.110Z,101463.89
2018-05-14T23:51:49.415Z,101462.06
2018-05-14T23:54:17.792Z,101461.83
2018-05-14T23:56:46.120Z,101454.98
2018-05-14T23:59:14.438Z,101463.73
